Ljubljana, Slovenia
Current Conditions -  °F | °C
As of 11:00 PM on Saturday 25 Oct 2014 (Local Time) from LJLJ Reporting Station
Scattered Clouds Scattered Clouds  
Wind Chill: 39°   Ceiling: Unl
Heat Index: 39°   Visibility: 6mi
Dew Point: 39°   Wind: 2mph
Humidity: 100%   Direction: 300°WNW
Pressure: 30.27"   Gusts: NA
Location:  46.06°N, 14.51°E
Report Text: LJLJ 252100Z 30002KT 9999 SCT045 04/04 Q1025 NOSIG
Loading
Personal Weather Stations






























Interactive Weather Map
Tropical Storm Tracking
New forecast layout! Learn more

10-Day Weather Forecast

Advertisements
Track Severe Weather on mobile